TFFR/PTP METAR and TAF weather

Enter ICAO airport designator
Station Type Date Time Source
TFFR METAR 2020/07/14 05:30 UTC NOAA

TFFR 140530Z AUTO VRB02KT 9999 FEW026 BKN056 26/24 Q1015 TEMPO 4000 SHRA SCT018TCU BKN025


Station Type Date Time Source
TFFR Decoded METAR 2020/07/14 05:30 UTC NOAA

Le Raizet, Guadeloupe, Guadeloupe (TFFR) 16-16N 061-31W 11M
Jul 14, 2020 - 01:30 AM EDT / 2020.07.14 0530 UTC
Wind: Variable at 2 MPH (2 KT):0
Visibility: greater than 7 mile(s):0
Sky conditions: mostly cloudy
Weather: Towering cumulus clouds observed
Temperature: 78 F (26 C)
Dew Point: 75 F (24 C)
Relative Humidity: 88%
Pressure (altimeter): 29.97 in. Hg (1015 hPa)
ob: TFFR 140530Z AUTO VRB02KT 9999 FEW026 BKN056 26/24 Q1015 TEMPO 4000 SHRA SCT018TCU BKN025
cycle: 5

Station Type Date Time Source
TFFR TAF 2020/07/14 06:21 UTC NOAA

TAF TFFR 140500Z 1406/1506 VRB02KT 9999 SCT020 SCT030 PROB30
TEMPO 1406/1415 4000 SHRA SCT018TCU BKN025
BECMG 1410/1412 08012KT

Example: see airport list